Terminal Aerodrome Forecast
Issued by NWS Wakefield, VA

Home | Current Version | Previous Version | Text Only | Print | Product List | Glossary On
Versions: 1 2 3 4 5 6 7 8 9 10 11 12 13 14 15 16 17 18 19 20 21 22 23 24 25
000
FTUS41 KAKQ 291136
TAFSBY
TAF
KSBY 291136Z 2912/3012 23012G20KT 6SM BR SCT015 OVC100
     FM291400 22012G18KT P6SM SCT040 BKN250
     FM300000 21006KT P6SM BKN120
     FM300600 20003KT 4SM BR BKN250=

USA.gov is the U.S. government's official web portal to all federal, state and local government web resources and services.